sensor_id;sensor_type;location;lat;lon;timestamp;temperature;humidity
6627;DHT22;3349;49.830;8.748;2022-12-20T00:00:52;1.60;99.90
6627;DHT22;3349;49.830;8.748;2022-12-20T00:03:20;1.60;99.90
6627;DHT22;3349;49.830;8.748;2022-12-20T00:05:47;1.70;99.90
6627;DHT22;3349;49.830;8.748;2022-12-20T00:08:14;1.70;99.90
6627;DHT22;3349;49.830;8.748;2022-12-20T00:10:42;1.70;99.90
6627;DHT22;3349;49.830;8.748;2022-12-20T00:15:37;1.70;99.90
6627;DHT22;3349;49.830;8.748;2022-12-20T00:18:04;1.70;99.90
6627;DHT22;3349;49.830;8.748;2022-12-20T00:20:32;1.60;99.90
6627;DHT22;3349;49.830;8.748;2022-12-20T00:22:59;1.60;99.90
6627;DHT22;3349;49.830;8.748;2022-12-20T00:25:26;1.60;99.90
6627;DHT22;3349;49.830;8.748;2022-12-20T00:27:53;1.90;99.90
6627;DHT22;3349;49.830;8.748;2022-12-20T00:30:20;1.60;99.90
6627;DHT22;3349;49.830;8.748;2022-12-20T00:32:47;1.50;99.90
6627;DHT22;3349;49.830;8.748;2022-12-20T00:35:14;1.50;99.90
6627;DHT22;3349;49.830;8.748;2022-12-20T00:37:42;1.60;99.90
6627;DHT22;3349;49.830;8.748;2022-12-20T00:40:09;1.60;99.90
6627;DHT22;3349;49.830;8.748;2022-12-20T00:42:36;1.60;99.90
6627;DHT22;3349;49.830;8.748;2022-12-20T00:45:03;1.60;99.90
6627;DHT22;3349;49.830;8.748;2022-12-20T00:47:30;1.60;99.90
6627;DHT22;3349;49.830;8.748;2022-12-20T00:49:58;1.60;99.90
6627;DHT22;3349;49.830;8.748;2022-12-20T00:52:24;2.00;99.90
6627;DHT22;3349;49.830;8.748;2022-12-20T00:54:52;1.60;99.90
6627;DHT22;3349;49.830;8.748;2022-12-20T00:57:19;1.60;99.90
6627;DHT22;3349;49.830;8.748;2022-12-20T00:59:45;1.60;99.90
6627;DHT22;3349;49.830;8.748;2022-12-20T01:02:12;1.50;99.90
6627;DHT22;3349;49.830;8.748;2022-12-20T01:04:39;1.60;99.90
6627;DHT22;3349;49.830;8.748;2022-12-20T01:07:06;1.60;99.90
6627;DHT22;3349;49.830;8.748;2022-12-20T01:09:33;1.70;99.90
6627;DHT22;3349;49.830;8.748;2022-12-20T01:12:01;1.60;99.90
6627;DHT22;3349;49.830;8.748;2022-12-20T01:14:28;1.60;99.90
6627;DHT22;3349;49.830;8.748;2022-12-20T01:16:54;1.10;99.90
6627;DHT22;3349;49.830;8.748;2022-12-20T01:19:21;1.50;99.90
6627;DHT22;3349;49.830;8.748;2022-12-20T01:21:48;1.50;99.90
6627;DHT22;3349;49.830;8.748;2022-12-20T01:24:16;1.40;99.90
6627;DHT22;3349;49.830;8.748;2022-12-20T01:26:44;1.30;99.90
6627;DHT22;3349;49.830;8.748;2022-12-20T01:29:13;1.30;99.90
6627;DHT22;3349;49.830;8.748;2022-12-20T01:31:40;1.30;99.90
6627;DHT22;3349;49.830;8.748;2022-12-20T01:34:07;1.20;99.90
6627;DHT22;3349;49.830;8.748;2022-12-20T01:36:35;1.30;99.90
6627;DHT22;3349;49.830;8.748;2022-12-20T01:39:04;1.30;99.90
6627;DHT22;3349;49.830;8.748;2022-12-20T01:41:34;1.30;99.90
6627;DHT22;3349;49.830;8.748;2022-12-20T01:44:02;1.40;99.90
6627;DHT22;3349;49.830;8.748;2022-12-20T01:46:32;1.40;99.90
6627;DHT22;3349;49.830;8.748;2022-12-20T01:49:03;1.40;99.90
6627;DHT22;3349;49.830;8.748;2022-12-20T01:51:33;1.50;99.90
6627;DHT22;3349;49.830;8.748;2022-12-20T01:54:05;1.50;99.90
6627;DHT22;3349;49.830;8.748;2022-12-20T01:56:33;1.50;99.90
6627;DHT22;3349;49.830;8.748;2022-12-20T01:59:00;1.50;99.90
6627;DHT22;3349;49.830;8.748;2022-12-20T02:01:27;1.50;99.90
6627;DHT22;3349;49.830;8.748;2022-12-20T02:03:55;1.50;99.90
6627;DHT22;3349;49.830;8.748;2022-12-20T02:06:24;1.50;99.90
6627;DHT22;3349;49.830;8.748;2022-12-20T02:08:55;1.60;99.90
6627;DHT22;3349;49.830;8.748;2022-12-20T02:14:16;1.60;99.90
6627;DHT22;3349;49.830;8.748;2022-12-20T02:16:50;1.60;99.90
6627;DHT22;3349;49.830;8.748;2022-12-20T02:19:40;1.60;99.90
6627;DHT22;3349;49.830;8.748;2022-12-20T02:22:17;1.70;99.90
6627;DHT22;3349;49.830;8.748;2022-12-20T02:27:57;1.60;99.90
6627;DHT22;3349;49.830;8.748;2022-12-20T02:30:27;1.60;99.90
6627;DHT22;3349;49.830;8.748;2022-12-20T02:33:01;1.60;99.90
6627;DHT22;3349;49.830;8.748;2022-12-20T02:35:31;1.60;99.90
6627;DHT22;3349;49.830;8.748;2022-12-20T02:38:01;1.60;99.90
6627;DHT22;3349;49.830;8.748;2022-12-20T02:40:31;1.60;99.90
6627;DHT22;3349;49.830;8.748;2022-12-20T02:43:02;1.70;99.90
6627;DHT22;3349;49.830;8.748;2022-12-20T02:45:52;1.70;99.90
6627;DHT22;3349;49.830;8.748;2022-12-20T02:48:19;1.70;99.90
6627;DHT22;3349;49.830;8.748;2022-12-20T02:50:49;1.70;99.90
6627;DHT22;3349;49.830;8.748;2022-12-20T02:53:17;1.70;99.90
6627;DHT22;3349;49.830;8.748;2022-12-20T02:55:47;1.60;99.90
6627;DHT22;3349;49.830;8.748;2022-12-20T02:58:22;1.70;99.90
6627;DHT22;3349;49.830;8.748;2022-12-20T03:00:52;1.80;99.90
6627;DHT22;3349;49.830;8.748;2022-12-20T03:03:20;1.80;99.90
6627;DHT22;3349;49.830;8.748;2022-12-20T03:05:52;1.80;99.90
6627;DHT22;3349;49.830;8.748;2022-12-20T03:08:20;1.80;99.90
6627;DHT22;3349;49.830;8.748;2022-12-20T03:10:47;1.80;99.90
6627;DHT22;3349;49.830;8.748;2022-12-20T03:13:14;1.80;99.90
6627;DHT22;3349;49.830;8.748;2022-12-20T03:15:40;1.80;99.90
6627;DHT22;3349;49.830;8.748;2022-12-20T03:18:09;1.80;99.90
6627;DHT22;3349;49.830;8.748;2022-12-20T03:20:36;1.80;99.90
6627;DHT22;3349;49.830;8.748;2022-12-20T03:23:06;1.80;99.90
6627;DHT22;3349;49.830;8.748;2022-12-20T03:25:32;1.80;99.90
6627;DHT22;3349;49.830;8.748;2022-12-20T03:27:59;1.80;99.90
6627;DHT22;3349;49.830;8.748;2022-12-20T03:30:26;1.80;99.90
6627;DHT22;3349;49.830;8.748;2022-12-20T03:32:52;1.80;99.90
6627;DHT22;3349;49.830;8.748;2022-12-20T03:35:21;1.90;99.90
6627;DHT22;3349;49.830;8.748;2022-12-20T03:37:48;1.90;99.90
6627;DHT22;3349;49.830;8.748;2022-12-20T03:40:15;1.90;99.90
6627;DHT22;3349;49.830;8.748;2022-12-20T03:42:41;2.00;99.90
6627;DHT22;3349;49.830;8.748;2022-12-20T03:45:09;2.00;99.90
6627;DHT22;3349;49.830;8.748;2022-12-20T03:47:36;2.00;99.90
6627;DHT22;3349;49.830;8.748;2022-12-20T03:50:04;2.00;99.90
6627;DHT22;3349;49.830;8.748;2022-12-20T03:52:32;2.00;99.90
6627;DHT22;3349;49.830;8.748;2022-12-20T03:54:59;2.10;99.90
6627;DHT22;3349;49.830;8.748;2022-12-20T03:57:26;2.00;99.90
6627;DHT22;3349;49.830;8.748;2022-12-20T03:59:53;2.10;99.90
6627;DHT22;3349;49.830;8.748;2022-12-20T04:02:20;2.10;99.90
6627;DHT22;3349;49.830;8.748;2022-12-20T04:04:47;2.10;99.90
6627;DHT22;3349;49.830;8.748;2022-12-20T04:07:14;2.10;99.90
6627;DHT22;3349;49.830;8.748;2022-12-20T04:09:42;2.10;99.90
6627;DHT22;3349;49.830;8.748;2022-12-20T04:12:08;2.20;99.90
6627;DHT22;3349;49.830;8.748;2022-12-20T04:14:35;2.20;99.90
6627;DHT22;3349;49.830;8.748;2022-12-20T04:17:02;2.20;99.90
6627;DHT22;3349;49.830;8.748;2022-12-20T04:19:29;2.20;99.90
6627;DHT22;3349;49.830;8.748;2022-12-20T04:21:56;2.20;99.90
6627;DHT22;3349;49.830;8.748;2022-12-20T04:24:23;2.40;99.90
6627;DHT22;3349;49.830;8.748;2022-12-20T04:26:51;2.40;99.90
6627;DHT22;3349;49.830;8.748;2022-12-20T04:29:18;2.50;99.90
6627;DHT22;3349;49.830;8.748;2022-12-20T04:31:44;2.50;99.90
6627;DHT22;3349;49.830;8.748;2022-12-20T04:34:11;2.60;99.90
6627;DHT22;3349;49.830;8.748;2022-12-20T04:36:38;2.60;99.90
6627;DHT22;3349;49.830;8.748;2022-12-20T04:39:04;2.60;99.90
6627;DHT22;3349;49.830;8.748;2022-12-20T04:41:31;2.60;99.90
6627;DHT22;3349;49.830;8.748;2022-12-20T04:43:59;2.70;99.90
6627;DHT22;3349;49.830;8.748;2022-12-20T04:46:26;2.80;99.90
6627;DHT22;3349;49.830;8.748;2022-12-20T04:48:53;2.80;99.90
6627;DHT22;3349;49.830;8.748;2022-12-20T04:51:20;2.80;99.90
6627;DHT22;3349;49.830;8.748;2022-12-20T04:53:47;2.90;99.90
6627;DHT22;3349;49.830;8.748;2022-12-20T04:56:14;2.90;99.90
6627;DHT22;3349;49.830;8.748;2022-12-20T04:58:41;2.90;99.90
6627;DHT22;3349;49.830;8.748;2022-12-20T05:01:10;2.90;99.90
6627;DHT22;3349;49.830;8.748;2022-12-20T05:03:36;2.90;99.90
6627;DHT22;3349;49.830;8.748;2022-12-20T05:06:03;2.90;99.90
6627;DHT22;3349;49.830;8.748;2022-12-20T05:08:30;2.90;99.90
6627;DHT22;3349;49.830;8.748;2022-12-20T05:10:57;3.00;99.90
6627;DHT22;3349;49.830;8.748;2022-12-20T05:13:24;3.00;99.90
6627;DHT22;3349;49.830;8.748;2022-12-20T05:15:51;3.10;99.90
6627;DHT22;3349;49.830;8.748;2022-12-20T05:18:19;3.10;99.90
6627;DHT22;3349;49.830;8.748;2022-12-20T05:20:46;3.10;99.90
6627;DHT22;3349;49.830;8.748;2022-12-20T05:23:33;3.10;99.90
6627;DHT22;3349;49.830;8.748;2022-12-20T05:26:17;3.20;99.90
6627;DHT22;3349;49.830;8.748;2022-12-20T05:28:44;3.20;99.90
6627;DHT22;3349;49.830;8.748;2022-12-20T05:31:11;3.20;99.90
6627;DHT22;3349;49.830;8.748;2022-12-20T05:33:39;3.20;99.90
6627;DHT22;3349;49.830;8.748;2022-12-20T05:36:06;3.20;99.90
6627;DHT22;3349;49.830;8.748;2022-12-20T05:38:33;3.20;99.90
6627;DHT22;3349;49.830;8.748;2022-12-20T05:41:00;3.20;99.90
6627;DHT22;3349;49.830;8.748;2022-12-20T05:43:29;3.30;99.90
6627;DHT22;3349;49.830;8.748;2022-12-20T05:45:56;3.20;99.90
6627;DHT22;3349;49.830;8.748;2022-12-20T05:48:23;3.40;99.90
6627;DHT22;3349;49.830;8.748;2022-12-20T05:50:51;3.40;99.90
6627;DHT22;3349;49.830;8.748;2022-12-20T05:53:18;3.30;99.90
6627;DHT22;3349;49.830;8.748;2022-12-20T05:55:51;3.30;99.90
6627;DHT22;3349;49.830;8.748;2022-12-20T05:58:18;3.30;99.90
6627;DHT22;3349;49.830;8.748;2022-12-20T06:00:45;3.30;99.90
6627;DHT22;3349;49.830;8.748;2022-12-20T06:03:12;3.40;99.90
6627;DHT22;3349;49.830;8.748;2022-12-20T06:05:39;3.40;99.90
6627;DHT22;3349;49.830;8.748;2022-12-20T06:08:08;3.50;99.90
6627;DHT22;3349;49.830;8.748;2022-12-20T06:10:35;3.60;99.90
6627;DHT22;3349;49.830;8.748;2022-12-20T06:13:02;3.60;99.90
6627;DHT22;3349;49.830;8.748;2022-12-20T06:15:30;3.60;99.90
6627;DHT22;3349;49.830;8.748;2022-12-20T06:17:56;3.70;99.90
6627;DHT22;3349;49.830;8.748;2022-12-20T06:20:24;3.90;99.90
6627;DHT22;3349;49.830;8.748;2022-12-20T06:22:51;4.10;99.90
6627;DHT22;3349;49.830;8.748;2022-12-20T06:25:19;4.20;99.90
6627;DHT22;3349;49.830;8.748;2022-12-20T06:27:46;4.30;99.90
6627;DHT22;3349;49.830;8.748;2022-12-20T06:30:13;4.20;99.90
6627;DHT22;3349;49.830;8.748;2022-12-20T06:32:40;4.30;99.90
6627;DHT22;3349;49.830;8.748;2022-12-20T06:35:07;4.30;99.90
6627;DHT22;3349;49.830;8.748;2022-12-20T06:37:34;4.20;99.90
6627;DHT22;3349;49.830;8.748;2022-12-20T06:40:02;4.20;99.90
6627;DHT22;3349;49.830;8.748;2022-12-20T06:42:31;4.10;99.90
6627;DHT22;3349;49.830;8.748;2022-12-20T06:44:58;4.10;99.90
6627;DHT22;3349;49.830;8.748;2022-12-20T06:47:24;4.10;99.90
6627;DHT22;3349;49.830;8.748;2022-12-20T06:49:51;4.10;99.90
6627;DHT22;3349;49.830;8.748;2022-12-20T06:52:18;4.10;99.90
6627;DHT22;3349;49.830;8.748;2022-12-20T06:54:45;4.00;99.90
6627;DHT22;3349;49.830;8.748;2022-12-20T06:57:11;4.00;99.90
6627;DHT22;3349;49.830;8.748;2022-12-20T06:59:40;4.10;99.90
6627;DHT22;3349;49.830;8.748;2022-12-20T07:02:08;4.20;99.90
6627;DHT22;3349;49.830;8.748;2022-12-20T07:04:35;4.30;99.90
6627;DHT22;3349;49.830;8.748;2022-12-20T07:07:02;4.40;99.90
6627;DHT22;3349;49.830;8.748;2022-12-20T07:09:29;4.50;99.90
6627;DHT22;3349;49.830;8.748;2022-12-20T07:11:56;4.60;99.90
6627;DHT22;3349;49.830;8.748;2022-12-20T07:14:22;4.90;99.90
6627;DHT22;3349;49.830;8.748;2022-12-20T07:16:51;4.90;99.90
6627;DHT22;3349;49.830;8.748;2022-12-20T07:19:17;4.80;99.90
6627;DHT22;3349;49.830;8.748;2022-12-20T07:21:46;4.80;99.90
6627;DHT22;3349;49.830;8.748;2022-12-20T07:24:13;4.70;99.90
6627;DHT22;3349;49.830;8.748;2022-12-20T07:26:39;4.80;99.90
6627;DHT22;3349;49.830;8.748;2022-12-20T07:29:06;5.00;99.90
6627;DHT22;3349;49.830;8.748;2022-12-20T07:31:33;5.10;99.90
6627;DHT22;3349;49.830;8.748;2022-12-20T07:34:01;5.20;99.90
6627;DHT22;3349;49.830;8.748;2022-12-20T07:36:27;5.20;99.90
6627;DHT22;3349;49.830;8.748;2022-12-20T07:38:54;5.10;99.90
6627;DHT22;3349;49.830;8.748;2022-12-20T07:41:21;5.10;99.90
6627;DHT22;3349;49.830;8.748;2022-12-20T07:43:49;5.10;99.90
6627;DHT22;3349;49.830;8.748;2022-12-20T07:46:16;5.00;99.90
6627;DHT22;3349;49.830;8.748;2022-12-20T07:48:43;5.00;99.90
6627;DHT22;3349;49.830;8.748;2022-12-20T07:51:14;4.90;99.90
6627;DHT22;3349;49.830;8.748;2022-12-20T07:53:45;4.70;99.90
6627;DHT22;3349;49.830;8.748;2022-12-20T07:56:14;4.70;99.90
6627;DHT22;3349;49.830;8.748;2022-12-20T07:58:42;4.70;99.90
6627;DHT22;3349;49.830;8.748;2022-12-20T08:01:10;4.60;99.90
6627;DHT22;3349;49.830;8.748;2022-12-20T08:03:42;4.50;99.90
6627;DHT22;3349;49.830;8.748;2022-12-20T08:06:09;4.40;99.90
6627;DHT22;3349;49.830;8.748;2022-12-20T08:08:42;4.40;99.90
6627;DHT22;3349;49.830;8.748;2022-12-20T08:11:10;4.30;99.90
6627;DHT22;3349;49.830;8.748;2022-12-20T08:13:37;4.20;99.90
6627;DHT22;3349;49.830;8.748;2022-12-20T08:16:05;4.20;99.90
6627;DHT22;3349;49.830;8.748;2022-12-20T08:18:32;4.10;99.90
6627;DHT22;3349;49.830;8.748;2022-12-20T08:20:59;4.10;99.90
6627;DHT22;3349;49.830;8.748;2022-12-20T08:23:26;4.10;99.90
6627;DHT22;3349;49.830;8.748;2022-12-20T08:25:54;4.10;99.90
6627;DHT22;3349;49.830;8.748;2022-12-20T08:28:22;4.00;99.90
6627;DHT22;3349;49.830;8.748;2022-12-20T08:30:49;3.90;99.90
6627;DHT22;3349;49.830;8.748;2022-12-20T08:33:16;3.90;99.90
6627;DHT22;3349;49.830;8.748;2022-12-20T08:35:42;3.90;99.90
6627;DHT22;3349;49.830;8.748;2022-12-20T08:38:09;3.90;99.90
6627;DHT22;3349;49.830;8.748;2022-12-20T08:40:36;4.10;99.90
6627;DHT22;3349;49.830;8.748;2022-12-20T08:43:04;3.80;99.90
6627;DHT22;3349;49.830;8.748;2022-12-20T08:45:30;4.30;99.90
6627;DHT22;3349;49.830;8.748;2022-12-20T08:47:57;4.30;99.90
6627;DHT22;3349;49.830;8.748;2022-12-20T08:50:24;4.50;99.90
6627;DHT22;3349;49.830;8.748;2022-12-20T08:52:51;4.80;99.90
6627;DHT22;3349;49.830;8.748;2022-12-20T08:55:18;5.00;99.90
6627;DHT22;3349;49.830;8.748;2022-12-20T08:57:44;5.40;99.90
6627;DHT22;3349;49.830;8.748;2022-12-20T09:00:14;5.80;99.90
6627;DHT22;3349;49.830;8.748;2022-12-20T09:02:40;6.10;99.90
6627;DHT22;3349;49.830;8.748;2022-12-20T09:05:08;6.20;99.90
6627;DHT22;3349;49.830;8.748;2022-12-20T09:07:34;6.30;99.90
6627;DHT22;3349;49.830;8.748;2022-12-20T09:10:01;6.60;99.90
6627;DHT22;3349;49.830;8.748;2022-12-20T09:12:28;6.80;99.90
6627;DHT22;3349;49.830;8.748;2022-12-20T09:14:55;6.90;99.90
6627;DHT22;3349;49.830;8.748;2022-12-20T09:17:23;7.00;99.90
6627;DHT22;3349;49.830;8.748;2022-12-20T09:19:50;7.10;99.90
6627;DHT22;3349;49.830;8.748;2022-12-20T09:22:16;7.20;99.90
6627;DHT22;3349;49.830;8.748;2022-12-20T09:24:43;7.20;99.90
6627;DHT22;3349;49.830;8.748;2022-12-20T09:27:10;7.20;99.90
6627;DHT22;3349;49.830;8.748;2022-12-20T09:29:36;7.30;99.90
6627;DHT22;3349;49.830;8.748;2022-12-20T09:32:03;7.30;99.90
6627;DHT22;3349;49.830;8.748;2022-12-20T09:34:31;7.40;99.90
6627;DHT22;3349;49.830;8.748;2022-12-20T09:36:58;7.40;99.90
6627;DHT22;3349;49.830;8.748;2022-12-20T09:39:25;7.50;99.90
6627;DHT22;3349;49.830;8.748;2022-12-20T09:41:52;7.60;99.90
6627;DHT22;3349;49.830;8.748;2022-12-20T09:44:21;7.70;99.90
6627;DHT22;3349;49.830;8.748;2022-12-20T09:46:53;7.70;99.90
6627;DHT22;3349;49.830;8.748;2022-12-20T09:49:22;7.80;99.90
6627;DHT22;3349;49.830;8.748;2022-12-20T09:52:05;7.90;99.90
6627;DHT22;3349;49.830;8.748;2022-12-20T09:54:43;7.90;99.90
6627;DHT22;3349;49.830;8.748;2022-12-20T09:57:18;8.10;99.90
6627;DHT22;3349;49.830;8.748;2022-12-20T09:59:48;8.50;99.90
6627;DHT22;3349;49.830;8.748;2022-12-20T10:02:20;8.80;99.90
6627;DHT22;3349;49.830;8.748;2022-12-20T10:04:48;9.20;99.90
6627;DHT22;3349;49.830;8.748;2022-12-20T10:07:25;9.30;98.80
6627;DHT22;3349;49.830;8.748;2022-12-20T10:10:20;9.60;96.60
6627;DHT22;3349;49.830;8.748;2022-12-20T10:12:59;9.50;94.70
6627;DHT22;3349;49.830;8.748;2022-12-20T10:15:31;9.70;93.70
6627;DHT22;3349;49.830;8.748;2022-12-20T10:18:13;9.50;93.70
6627;DHT22;3349;49.830;8.748;2022-12-20T10:20:52;9.60;92.90
6627;DHT22;3349;49.830;8.748;2022-12-20T10:23:26;9.70;91.30
6627;DHT22;3349;49.830;8.748;2022-12-20T10:25:54;9.80;91.10
6627;DHT22;3349;49.830;8.748;2022-12-20T10:28:25;9.80;91.80
6627;DHT22;3349;49.830;8.748;2022-12-20T10:30:53;9.70;91.50
6627;DHT22;3349;49.830;8.748;2022-12-20T10:33:26;9.70;92.20
6627;DHT22;3349;49.830;8.748;2022-12-20T10:35:53;9.60;92.80
6627;DHT22;3349;49.830;8.748;2022-12-20T10:38:21;9.50;93.20
6627;DHT22;3349;49.830;8.748;2022-12-20T10:40:59;9.40;94.20
6627;DHT22;3349;49.830;8.748;2022-12-20T10:43:27;9.50;94.80
6627;DHT22;3349;49.830;8.748;2022-12-20T10:46:04;9.60;93.50
6627;DHT22;3349;49.830;8.748;2022-12-20T10:48:34;9.60;92.80
6627;DHT22;3349;49.830;8.748;2022-12-20T10:51:03;9.60;92.80
6627;DHT22;3349;49.830;8.748;2022-12-20T10:53:31;10.00;90.00
6627;DHT22;3349;49.830;8.748;2022-12-20T10:56:17;10.10;88.50
6627;DHT22;3349;49.830;8.748;2022-12-20T10:58:51;10.10;89.10
6627;DHT22;3349;49.830;8.748;2022-12-20T11:01:20;10.10;90.10
6627;DHT22;3349;49.830;8.748;2022-12-20T11:03:53;10.20;87.40
6627;DHT22;3349;49.830;8.748;2022-12-20T11:06:22;10.30;87.40
6627;DHT22;3349;49.830;8.748;2022-12-20T11:08:51;10.30;86.00
6627;DHT22;3349;49.830;8.748;2022-12-20T11:11:19;10.50;84.50
6627;DHT22;3349;49.830;8.748;2022-12-20T11:13:50;10.70;84.50
6627;DHT22;3349;49.830;8.748;2022-12-20T11:16:25;11.00;89.30
6627;DHT22;3349;49.830;8.748;2022-12-20T11:18:59;11.40;76.90
6627;DHT22;3349;49.830;8.748;2022-12-20T11:21:31;11.70;89.50
6627;DHT22;3349;49.830;8.748;2022-12-20T11:24:10;11.80;82.40
6627;DHT22;3349;49.830;8.748;2022-12-20T11:26:57;11.90;78.80
6627;DHT22;3349;49.830;8.748;2022-12-20T11:29:41;12.00;77.10
6627;DHT22;3349;49.830;8.748;2022-12-20T11:32:20;12.20;75.80
6627;DHT22;3349;49.830;8.748;2022-12-20T11:34:59;12.00;75.30
6627;DHT22;3349;49.830;8.748;2022-12-20T11:37:34;12.10;75.00
6627;DHT22;3349;49.830;8.748;2022-12-20T11:40:28;11.90;74.80
6627;DHT22;3349;49.830;8.748;2022-12-20T11:43:06;11.80;75.90
6627;DHT22;3349;49.830;8.748;2022-12-20T11:45:42;11.70;75.80
6627;DHT22;3349;49.830;8.748;2022-12-20T11:48:25;11.60;76.20
6627;DHT22;3349;49.830;8.748;2022-12-20T11:51:01;11.60;76.30
6627;DHT22;3349;49.830;8.748;2022-12-20T11:53:32;11.60;75.70
6627;DHT22;3349;49.830;8.748;2022-12-20T11:56:07;11.60;75.80
6627;DHT22;3349;49.830;8.748;2022-12-20T11:58:47;11.80;75.30
6627;DHT22;3349;49.830;8.748;2022-12-20T12:01:16;11.70;75.20
6627;DHT22;3349;49.830;8.748;2022-12-20T12:03:54;11.50;77.30
6627;DHT22;3349;49.830;8.748;2022-12-20T12:06:26;11.50;75.90
6627;DHT22;3349;49.830;8.748;2022-12-20T12:09:03;11.60;75.70
6627;DHT22;3349;49.830;8.748;2022-12-20T12:11:35;11.50;75.50
6627;DHT22;3349;49.830;8.748;2022-12-20T12:14:04;11.50;75.50
6627;DHT22;3349;49.830;8.748;2022-12-20T12:16:34;11.60;74.60
6627;DHT22;3349;49.830;8.748;2022-12-20T12:19:04;11.70;73.20
6627;DHT22;3349;49.830;8.748;2022-12-20T12:21:37;11.50;74.20
6627;DHT22;3349;49.830;8.748;2022-12-20T12:24:12;11.40;75.00
6627;DHT22;3349;49.830;8.748;2022-12-20T12:26:45;11.30;75.40
6627;DHT22;3349;49.830;8.748;2022-12-20T12:29:13;11.30;75.30
6627;DHT22;3349;49.830;8.748;2022-12-20T12:31:44;11.20;76.60
6627;DHT22;3349;49.830;8.748;2022-12-20T12:34:21;11.20;76.10
6627;DHT22;3349;49.830;8.748;2022-12-20T12:37:15;11.20;75.20
6627;DHT22;3349;49.830;8.748;2022-12-20T12:43:16;11.30;74.20
6627;DHT22;3349;49.830;8.748;2022-12-20T12:45:48;11.10;74.60
6627;DHT22;3349;49.830;8.748;2022-12-20T12:48:19;11.00;75.00
6627;DHT22;3349;49.830;8.748;2022-12-20T12:50:49;11.00;75.20
6627;DHT22;3349;49.830;8.748;2022-12-20T12:53:21;11.00;75.10
6627;DHT22;3349;49.830;8.748;2022-12-20T12:55:50;11.20;74.30
6627;DHT22;3349;49.830;8.748;2022-12-20T12:58:40;11.20;73.90
6627;DHT22;3349;49.830;8.748;2022-12-20T13:01:08;11.10;74.70
6627;DHT22;3349;49.830;8.748;2022-12-20T13:03:42;11.10;75.10
6627;DHT22;3349;49.830;8.748;2022-12-20T13:06:41;11.00;74.90
6627;DHT22;3349;49.830;8.748;2022-12-20T13:09:17;11.10;75.10
6627;DHT22;3349;49.830;8.748;2022-12-20T13:11:45;11.10;73.50
6627;DHT22;3349;49.830;8.748;2022-12-20T13:14:47;11.10;73.40
6627;DHT22;3349;49.830;8.748;2022-12-20T13:17:44;11.00;74.50
6627;DHT22;3349;49.830;8.748;2022-12-20T13:20:17;10.90;74.80
6627;DHT22;3349;49.830;8.748;2022-12-20T13:23:12;11.00;74.50
6627;DHT22;3349;49.830;8.748;2022-12-20T13:25:40;11.10;73.80
6627;DHT22;3349;49.830;8.748;2022-12-20T13:31:30;11.10;73.10
6627;DHT22;3349;49.830;8.748;2022-12-20T13:33:59;10.90;73.50
6627;DHT22;3349;49.830;8.748;2022-12-20T13:36:34;10.80;74.00
6627;DHT22;3349;49.830;8.748;2022-12-20T13:39:30;10.80;74.00
6627;DHT22;3349;49.830;8.748;2022-12-20T13:42:26;10.80;74.80
6627;DHT22;3349;49.830;8.748;2022-12-20T13:44:56;10.60;74.90
6627;DHT22;3349;49.830;8.748;2022-12-20T13:47:39;10.60;75.80
6627;DHT22;3349;49.830;8.748;2022-12-20T13:50:31;10.60;75.70
6627;DHT22;3349;49.830;8.748;2022-12-20T13:53:00;10.80;74.30
6627;DHT22;3349;49.830;8.748;2022-12-20T13:55:34;10.70;74.10
6627;DHT22;3349;49.830;8.748;2022-12-20T13:58:12;10.60;74.70
6627;DHT22;3349;49.830;8.748;2022-12-20T14:00:40;10.70;74.60
6627;DHT22;3349;49.830;8.748;2022-12-20T14:03:22;10.80;73.80
6627;DHT22;3349;49.830;8.748;2022-12-20T14:05:55;10.80;73.70
6627;DHT22;3349;49.830;8.748;2022-12-20T14:08:25;10.70;73.50
6627;DHT22;3349;49.830;8.748;2022-12-20T14:10:53;10.80;72.50
6627;DHT22;3349;49.830;8.748;2022-12-20T14:13:22;10.70;73.00
6627;DHT22;3349;49.830;8.748;2022-12-20T14:15:50;10.80;73.20
6627;DHT22;3349;49.830;8.748;2022-12-20T14:18:19;10.50;73.30
6627;DHT22;3349;49.830;8.748;2022-12-20T14:20:49;10.60;73.10
6627;DHT22;3349;49.830;8.748;2022-12-20T14:23:19;10.50;72.50
6627;DHT22;3349;49.830;8.748;2022-12-20T14:25:49;10.50;72.70
6627;DHT22;3349;49.830;8.748;2022-12-20T14:28:28;10.30;73.80
6627;DHT22;3349;49.830;8.748;2022-12-20T14:30:57;10.20;74.20
6627;DHT22;3349;49.830;8.748;2022-12-20T14:33:28;10.00;74.90
6627;DHT22;3349;49.830;8.748;2022-12-20T14:35:56;10.20;74.90
6627;DHT22;3349;49.830;8.748;2022-12-20T14:38:29;10.20;74.20
6627;DHT22;3349;49.830;8.748;2022-12-20T14:40:56;10.30;73.70
6627;DHT22;3349;49.830;8.748;2022-12-20T14:43:26;10.40;72.50
6627;DHT22;3349;49.830;8.748;2022-12-20T14:46:12;10.60;71.60
6627;DHT22;3349;49.830;8.748;2022-12-20T14:48:42;10.50;71.50
6627;DHT22;3349;49.830;8.748;2022-12-20T14:51:09;10.50;72.10
6627;DHT22;3349;49.830;8.748;2022-12-20T14:53:37;10.60;71.80
6627;DHT22;3349;49.830;8.748;2022-12-20T14:56:11;10.60;71.00
6627;DHT22;3349;49.830;8.748;2022-12-20T14:58:39;10.60;71.20
6627;DHT22;3349;49.830;8.748;2022-12-20T15:01:18;10.50;71.10
6627;DHT22;3349;49.830;8.748;2022-12-20T15:03:50;10.30;68.30
6627;DHT22;3349;49.830;8.748;2022-12-20T15:06:31;10.30;68.20
6627;DHT22;3349;49.830;8.748;2022-12-20T15:08:58;10.20;68.30
6627;DHT22;3349;49.830;8.748;2022-12-20T15:11:25;10.10;69.00
6627;DHT22;3349;49.830;8.748;2022-12-20T15:13:53;9.90;70.90
6627;DHT22;3349;49.830;8.748;2022-12-20T15:16:22;9.70;71.60
6627;DHT22;3349;49.830;8.748;2022-12-20T15:18:52;9.50;72.80
6627;DHT22;3349;49.830;8.748;2022-12-20T15:21:26;9.30;74.00
6627;DHT22;3349;49.830;8.748;2022-12-20T15:23:55;9.10;75.30
6627;DHT22;3349;49.830;8.748;2022-12-20T15:26:25;8.90;78.20
6627;DHT22;3349;49.830;8.748;2022-12-20T15:28:52;9.00;79.30
6627;DHT22;3349;49.830;8.748;2022-12-20T15:31:20;8.90;78.90
6627;DHT22;3349;49.830;8.748;2022-12-20T15:33:48;9.00;79.00
6627;DHT22;3349;49.830;8.748;2022-12-20T15:36:19;9.10;79.00
6627;DHT22;3349;49.830;8.748;2022-12-20T15:38:46;9.20;77.90
6627;DHT22;3349;49.830;8.748;2022-12-20T15:41:17;9.20;77.40
6627;DHT22;3349;49.830;8.748;2022-12-20T15:43:44;9.20;77.50
6627;DHT22;3349;49.830;8.748;2022-12-20T15:46:11;9.30;76.50
6627;DHT22;3349;49.830;8.748;2022-12-20T15:48:38;9.40;76.10
6627;DHT22;3349;49.830;8.748;2022-12-20T15:51:14;9.30;76.50
6627;DHT22;3349;49.830;8.748;2022-12-20T15:53:42;9.50;77.10
6627;DHT22;3349;49.830;8.748;2022-12-20T15:56:16;9.20;77.40
6627;DHT22;3349;49.830;8.748;2022-12-20T15:58:43;9.40;76.80
6627;DHT22;3349;49.830;8.748;2022-12-20T16:01:13;9.30;75.90
6627;DHT22;3349;49.830;8.748;2022-12-20T16:03:41;9.50;74.60
6627;DHT22;3349;49.830;8.748;2022-12-20T16:06:09;9.60;74.40
6627;DHT22;3349;49.830;8.748;2022-12-20T16:08:37;9.70;73.40
6627;DHT22;3349;49.830;8.748;2022-12-20T16:11:05;9.70;73.30
6627;DHT22;3349;49.830;8.748;2022-12-20T16:13:32;9.60;74.20
6627;DHT22;3349;49.830;8.748;2022-12-20T16:16:00;9.50;74.60
6627;DHT22;3349;49.830;8.748;2022-12-20T16:18:27;9.60;74.00
6627;DHT22;3349;49.830;8.748;2022-12-20T16:20:54;9.50;74.20
6627;DHT22;3349;49.830;8.748;2022-12-20T16:23:21;9.50;74.60
6627;DHT22;3349;49.830;8.748;2022-12-20T16:25:48;9.60;73.50
6627;DHT22;3349;49.830;8.748;2022-12-20T16:28:17;9.80;72.20
6627;DHT22;3349;49.830;8.748;2022-12-20T16:30:44;9.90;71.60
6627;DHT22;3349;49.830;8.748;2022-12-20T16:33:19;9.80;72.30
6627;DHT22;3349;49.830;8.748;2022-12-20T16:35:46;9.80;72.40
6627;DHT22;3349;49.830;8.748;2022-12-20T16:38:13;9.80;72.50
6627;DHT22;3349;49.830;8.748;2022-12-20T16:40:40;9.90;71.60
6627;DHT22;3349;49.830;8.748;2022-12-20T16:43:12;9.90;72.10
6627;DHT22;3349;49.830;8.748;2022-12-20T16:45:41;10.00;70.50
6627;DHT22;3349;49.830;8.748;2022-12-20T16:48:08;10.40;67.70